| time (UTC) | temp F | wind direction | speed knots | gust knots | rain 1hr in | rain 24hr in | rain mn in | humidity % | barometer mb |
| 20260506123056 | 45 | 0 | 0.0 | 0.9 | 0.00 | 0.04 | 0.00 | 76 | 1014.9 |
| 20260506121606 | 44 | 0 | 0.0 | 0.9 | 0.00 | 0.04 | 0.00 | 76 | 1014.6 |
| 20260506120110 | 43 | 0 | 0.0 | 0.9 | 0.00 | 0.04 | 0.00 | 77 | 1014.5 |
| 20260506114626 | 41 | 0 | 0.0 | 0.9 | 0.00 | 0.04 | 0.00 | 80 | 1014.1 |
| 20260506113057 | 41 | 0 | 0.0 | 0.9 | 0.00 | 0.04 | 0.00 | 80 | 1013.7 |
| 20260506111557 | 40 | 0 | 0.0 | 0.9 | 0.00 | 0.04 | 0.00 | 81 | 1013.2 |
| 20260506110101 | 40 | 0 | 0.0 | 0.0 | 0.00 | 0.04 | 0.00 | 81 | 1013.1 |
| 20260506104600 | 41 | 0 | 0.0 | 0.9 | 0.00 | 0.04 | 0.00 | 80 | 1013.2 |
| 20260506103057 | 41 | 0 | 0.0 | 0.9 | 0.00 | 0.04 | 0.00 | 81 | 1013.0 |
| 20260506101600 | 40 | 0 | 0.0 | 0.9 | 0.00 | 0.04 | 0.00 | 83 | 1012.8 |
| 20260506100100 | 40 | 0 | 0.0 | 0.0 | 0.00 | 0.04 | 0.00 | 84 | 1012.8 |
| 20260506094557 | 40 | 0 | 0.0 | 0.9 | 0.00 | 0.04 | 0.00 | 85 | 1012.9 |
| 20260506093114 | 40 | 0 | 0.0 | 0.9 | 0.00 | 0.04 | 0.00 | 87 | 1012.6 |
| 20260506091600 | 40 | 76 | 0.0 | 0.9 | 0.00 | 0.04 | 0.00 | 92 | 1012.3 |
| 20260506090128 | 37 | 0 | 0.0 | 0.0 | 0.00 | 0.04 | 0.00 | 93 | 1012.4 |
| 20260506084557 | 37 | 0 | 0.0 | 0.0 | 0.00 | 0.04 | 0.00 | 92 | 1012.5 |
| 20260506083057 | 38 | 0 | 0.0 | 0.0 | 0.00 | 0.04 | 0.00 | 91 | 1012.5 |
| 20260506081602 | 38 | 0 | 0.0 | 0.0 | 0.00 | 0.04 | 0.00 | 91 | 1012.4 |
| 20260506080111 | 39 | 0 | 0.0 | 0.0 | 0.00 | 0.04 | 0.00 | 91 | 1012.3 |
| 20260506073113 | 40 | 0 | 0.0 | 0.0 | 0.00 | 0.04 | 0.00 | 89 | 1012.1 |
| 20260506071600 | 40 | 0 | 0.0 | 0.0 | 0.00 | 0.04 | 0.00 | 88 | 1012.1 |
| 20260506061604 | 44 | 0 | 0.0 | 0.0 | 0.00 | 0.04 | 0.00 | 84 | 1011.9 |
| 20260506050103 | 44 | 0 | 0.0 | 0.0 | 0.00 | 0.04 | 0.00 | 81 | 1011.7 |
| 20260506044608 | 45 | 0 | 0.0 | 0.0 | 0.00 | 0.04 | 0.04 | 80 | 1011.9 |
| 20260506043055 | 46 | 0 | 0.0 | 0.0 | 0.00 | 0.04 | 0.04 | 79 | 1011.8 |
| 20260506041606 | 47 | 0 | 0.0 | 0.0 | 0.00 | 0.04 | 0.04 | 78 | 1011.7 |
| 20260506040101 | 48 | 0 | 0.0 | 0.0 | 0.00 | 0.04 | 0.04 | 74 | 1011.8 |
| 20260506034601 | 48 | 0 | 0.0 | 0.0 | 0.00 | 0.04 | 0.04 | 73 | 1011.9 |
| 20260506033059 | 48 | 0 | 0.0 | 0.0 | 0.00 | 0.04 | 0.04 | 73 | 1012.0 |
| 20260506031600 | 49 | 0 | 0.0 | 0.0 | 0.00 | 0.04 | 0.04 | 70 | 1011.8 |
| 20260506030054 | 49 | 0 | 0.0 | 0.0 | 0.00 | 0.04 | 0.04 | 67 | 1011.7 |
| 20260506024600 | 49 | 0 | 0.0 | 0.0 | 0.00 | 0.11 | 0.04 | 66 | 1011.6 |
| 20260506023057 | 49 | 0 | 0.0 | 0.0 | 0.00 | 0.11 | 0.04 | 65 | 1011.7 |
| 20260506021554 | 50 | 0 | 0.0 | 0.0 | 0.00 | 0.11 | 0.04 | 65 | 1011.6 |
| 20260506020121 | 50 | 0 | 0.0 | 0.0 | 0.00 | 0.11 | 0.04 | 65 | 1011.2 |
| 20260506014554 | 50 | 0 | 0.0 | 0.0 | 0.00 | 0.12 | 0.04 | 59 | 1010.9 |
| 20260506013055 | 51 | 149 | 0.0 | 0.0 | 0.00 | 0.12 | 0.04 | 57 | 1011.0 |
| 20260506011559 | 51 | 0 | 0.0 | 0.0 | 0.00 | 0.12 | 0.04 | 58 | 1010.9 |
| 20260506010055 | 52 | 0 | 0.0 | 0.9 | 0.00 | 0.12 | 0.04 | 56 | 1010.5 |
| 20260506004555 | 52 | 0 | 0.0 | 0.9 | 0.00 | 0.12 | 0.04 | 55 | 1010.4 |
| 20260506003056 | 53 | 0 | 0.0 | 0.9 | 0.00 | 0.12 | 0.04 | 52 | 1010.1 |
| 20260506001606 | 53 | 0 | 0.0 | 0.9 | 0.00 | 0.12 | 0.04 | 51 | 1010.1 |
| 20260506000123 | 53 | 51 | 0.0 | 0.9 | 0.00 | 0.12 | 0.04 | 49 | 1010.1 |
| 20260505234601 | 53 | 0 | 0.0 | 0.9 | 0.00 | 0.12 | 0.04 | 51 | 1009.9 |
| 20260505233056 | 53 | 0 | 0.0 | 2.6 | 0.00 | 0.12 | 0.04 | 49 | 1010.3 |
| 20260505231559 | 53 | 71 | 0.0 | 2.6 | 0.00 | 0.12 | 0.04 | 51 | 1010.2 |
| 20260505230058 | 53 | 55 | 0.0 | 2.6 | 0.00 | 0.12 | 0.04 | 50 | 1010.1 |
| 20260505224554 | 53 | 234 | 0.9 | 3.5 | 0.00 | 0.12 | 0.04 | 50 | 1010.2 |
| 20260505223105 | 54 | 156 | 0.9 | 3.5 | 0.00 | 0.12 | 0.04 | 49 | 1010.4 |
| 20260505221558 | 53 | 108 | 0.9 | 2.6 | 0.00 | 0.12 | 0.04 | 47 | 1010.4 |
| 20260505220105 | 54 | 98 | 0.9 | 3.5 | 0.00 | 0.12 | 0.04 | 48 | 1010.3 |
| 20260505214601 | 54 | 84 | 0.9 | 5.2 | 0.00 | 0.12 | 0.04 | 47 | 1010.5 |
| 20260505213056 | 54 | 90 | 0.0 | 2.6 | 0.00 | 0.12 | 0.04 | 50 | 1010.6 |
| 20260505211631 | 54 | 86 | 1.7 | 4.3 | 0.00 | 0.12 | 0.04 | 46 | 1010.6 |
| 20260505210055 | 55 | 59 | 1.7 | 4.3 | 0.00 | 0.12 | 0.04 | 48 | 1010.6 |
| 20260505204605 | 55 | 82 | 1.7 | 3.5 | 0.00 | 0.12 | 0.04 | 48 | 1011.0 |
| 20260505203058 | 55 | 245 | 0.9 | 4.3 | 0.00 | 0.12 | 0.04 | 56 | 1011.2 |
| 20260505201555 | 54 | 230 | 0.9 | 4.3 | 0.00 | 0.12 | 0.04 | 58 | 1011.4 |
| 20260505200055 | 53 | 231 | 0.9 | 4.3 | 0.00 | 0.12 | 0.04 | 59 | 1011.4 |
| 20260505194554 | 54 | 242 | 1.7 | 5.2 | 0.00 | 0.12 | 0.04 | 57 | 1011.8 |
| 20260505193053 | 53 | 238 | 0.9 | 4.3 | 0.00 | 0.12 | 0.04 | 58 | 1011.7 |
| 20260505191603 | 53 | 246 | 0.0 | 2.6 | 0.00 | 0.12 | 0.04 | 58 | 1011.7 |
| 20260505190108 | 53 | 0 | 0.0 | 2.6 | 0.00 | 0.12 | 0.04 | 58 | 1011.7 |
| 20260505184554 | 53 | 72 | 0.9 | 2.6 | 0.00 | 0.12 | 0.04 | 58 | 1011.8 |
| 20260505183054 | 53 | 252 | 0.9 | 2.6 | 0.00 | 0.12 | 0.04 | 56 | 1011.7 |
| 20260505181633 | 53 | 259 | 0.0 | 1.7 | 0.00 | 0.12 | 0.04 | 57 | 1011.8 |
| 20260505180104 | 53 | 353 | 1.7 | 2.6 | 0.00 | 0.12 | 0.04 | 53 | 1011.8 |
| 20260505174553 | 53 | 96 | 0.9 | 4.3 | 0.00 | 0.12 | 0.04 | 56 | 1012.0 |
| 20260505173054 | 53 | 65 | 0.9 | 2.6 | 0.00 | 0.12 | 0.04 | 55 | 1011.9 |
| 20260505171601 | 53 | 52 | 0.9 | 3.5 | 0.00 | 0.12 | 0.04 | 54 | 1011.7 |
| 20260505170057 | 54 | 85 | 0.0 | 4.3 | 0.00 | 0.12 | 0.04 | 57 | 1011.5 |
| 20260505164554 | 54 | 57 | 1.7 | 4.3 | 0.00 | 0.12 | 0.04 | 56 | 1011.2 |
| 20260505163057 | 54 | 66 | 1.7 | 5.2 | 0.00 | 0.12 | 0.04 | 54 | 1011.3 |
| 20260505161553 | 54 | 79 | 1.7 | 6.1 | 0.00 | 0.12 | 0.04 | 59 | 1011.2 |
| 20260505153058 | 52 | 70 | 1.7 | 5.2 | 0.00 | 0.12 | 0.04 | 66 | 1010.7 |
| 20260505151602 | 50 | 53 | 0.0 | 3.5 | 0.00 | 0.12 | 0.04 | 73 | 1010.5 |
| 20260505124557 | 46 | 67 | 2.6 | 4.3 | 0.03 | 0.11 | 0.03 | 80 | 1010.6 |